Flight Track Log - Related Links

Times and Time Zones

All times are in EDT time to prevent confusion due to time zone crossing. See the SWA561 flight status page for this flight to view local times or setup timezone preferences in your user account.

Time Position Orientation Groundspeed Altitude Reporting Facility
EDT Latitude Longitude Course Direction KTS MPH feet Rate Location/Type
Sun 06:29:35 PM 41.3678 -81.9692 244° Southwest 227 261 4,300  Level Cleveland Center
Sun 06:30:08 PM 41.3592 -82.0050 252° West 239 275 5,600 1,109 Climbing Cleveland Center
Sun 06:31:07 PM 41.3372 -82.0903 251° West 246 283 6,000 1,350 Climbing Cleveland Center
Sun 06:32:08 PM 41.3047 -82.1753 243° Southwest 255 293 8,300 2,231 Climbing Cleveland Center
Sun 06:33:08 PM 41.2617 -82.2625 237° Southwest 267 307 10,500 1,800 Climbing Cleveland Center
Sun 06:34:08 PM 41.2125 -82.3553 235° Southwest 296 341 11,900 1,200 Climbing Cleveland Center
Sun 06:35:08 PM 41.2022 -82.4681 263° West 302 348 12,900 800 Climbing Cleveland Center
Sun 06:36:08 PM 41.1753 -82.5886 253° West 327 376 13,500 1,361 Climbing Cleveland Center
Sun 06:37:07 PM 41.1750 -82.7183 270° West 350 403 15,600 2,168 Climbing Cleveland Center
Sun 06:38:07 PM 41.1808 -82.8508 273° West 362 417 17,800 2,033 Climbing Cleveland Center
Sun 06:39:08 PM 41.1636 -82.9689 259° West 362 417 19,700 1,850 Climbing Cleveland Center
Sun 06:40:07 PM 41.0764 -83.0539 216° Southwest 345 397 21,500 1,850 Climbing Cleveland Center
Sun 06:41:08 PM 40.9828 -83.1358 213° Southwest 403 464 23,400 1,785 Climbing Cleveland Center
Sun 06:42:08 PM 40.8828 -83.2253 214° Southwest 398 458 25,100 1,461 Climbing Cleveland Center
Sun 06:43:03 PM 40.7958 -83.3011 213° Southwest 410 472 26,200 1,744 Climbing Indianapolis Center
Sun 06:44:05 PM 40.7072 -83.3811 214° Southwest 416 479 28,500 2,323 Climbing Indianapolis Center
Sun 06:45:07 PM 40.6200 -83.4581 214° Southwest 379 436 31,000 1,742 Climbing Indianapolis Center
Sun 06:46:09 PM 40.5217 -83.5456 214° Southwest 365 420 32,100 968 Climbing Indianapolis Center
Sun 06:47:11 PM 40.4361 -83.6206 214° Southwest 368 423 33,000 435 Climbing Indianapolis Center
Sun 06:48:13 PM 40.3497 -83.6947 213° Southwest 368 423 33,000  Level Indianapolis Center
Sun 06:49:15 PM 40.2639 -83.7694 214° Southwest 369 425 33,000  Level Indianapolis Center
Sun 06:50:17 PM 40.1769 -83.8447 213° Southwest 373 429 33,000  Level Indianapolis Center
Sun 06:51:19 PM 40.0903 -83.9208 214° Southwest 373 429 33,000  Level Indianapolis Center
Sun 06:52:20 PM 39.9875 -84.0089 213° Southwest 377 434 33,000  Level Indianapolis Center
Sun 06:53:22 PM 39.8989 -84.0847 213° Southwest 379 436 33,000 242 Level Indianapolis Center
Sun 06:54:24 PM 39.8100 -84.1608 213° Southwest 381 438 33,500 484 Climbing Indianapolis Center
Sun 06:55:26 PM 39.7203 -84.2372 213° Southwest 382 440 34,000 242 Climbing Indianapolis Center
Sun 06:56:28 PM 39.6283 -84.3144 213° Southwest 388 447 34,000  Level Indianapolis Center
Sun 06:57:30 PM 39.5375 -84.3919 213° Southwest 390 449 34,000  Level Indianapolis Center
Sun 06:58:32 PM 39.4464 -84.4689 213° Southwest 388 447 34,000  Level Indianapolis Center
Sun 06:59:34 PM 39.3406 -84.5586 213° Southwest 386 444 34,000  Level Indianapolis Center
Sun 07:00:36 PM 39.2503 -84.6350 213° Southwest 386 444 34,000  Level Indianapolis Center
Sun 07:01:38 PM 39.1614 -84.7094 213° Southwest 379 436 34,000  Level Indianapolis Center
Sun 07:02:39 PM 39.0717 -84.7836 213° Southwest 380 437 34,000  Level Indianapolis Center
Sun 07:03:41 PM 38.9819 -84.8592 213° Southwest 382 440 34,000  Level Indianapolis Center
Sun 07:04:43 PM 38.8983 -84.9281 213° Southwest 379 436 34,000  Level Indianapolis Center
Sun 07:05:45 PM 38.7906 -85.0156 212° Southwest 381 438 34,000  Level Indianapolis Center
Sun 07:06:47 PM 38.7019 -85.0897 213° Southwest 380 437 34,000  Level Indianapolis Center
Sun 07:07:49 PM 38.6047 -85.1678 212° Southwest 383 441 34,000  Level Indianapolis Center
Sun 07:08:51 PM 38.5147 -85.2364 211° Southwest 379 436 34,000  Level Indianapolis Center
Sun 07:09:52 PM 38.4242 -85.3075 212° Southwest 379 436 34,000  Level Indianapolis Center
Sun 07:10:54 PM 38.3308 -85.3803 211° Southwest 388 447 34,000 -435 Level Indianapolis Center
Sun 07:11:56 PM 38.2347 -85.4544 211° Southwest 397 457 33,100 -871 Descending Indianapolis Center
Sun 07:12:58 PM 38.1383 -85.5292 211° Southwest 402 463 32,200 -919 Descending Indianapolis Center
Sun 07:14:00 PM 38.0406 -85.6047 211° Southwest 407 468 31,200 -1,463 Descending Indianapolis Center
Sun 07:15:01 PM 37.9414 -85.6797 211° Southwest 411 473 29,200 -1,951 Descending Indianapolis Center
Sun 07:16:03 PM 37.8414 -85.7558 211° Southwest 415 478 27,200 -2,129 Descending Indianapolis Center
Sun 07:17:05 PM 37.7222 -85.8475 211° Southwest 414 476 24,800 -2,177 Descending Indianapolis Center
Sun 07:18:07 PM 37.6294 -85.9186 211° Southwest 393 452 22,700 -1,366 Descending Indianapolis Center
Sun 07:19:08 PM 37.5408 -85.9856 211° Southwest 383 441 22,000 -341 Descending Indianapolis Center
Sun 07:20:10 PM 37.4525 -86.0519 211° Southwest 372 428 22,000  Level Indianapolis Center
Sun 07:21:12 PM 37.3639 -86.1194 211° Southwest 368 423 22,000  Level Indianapolis Center
Sun 07:22:14 PM 37.2744 -86.1872 211° Southwest 371 427 22,000 -581 Level Indianapolis Center
Sun 07:23:16 PM 37.1817 -86.2553 210° Southwest 379 436 20,800 -1,415 Descending Indianapolis Center
Sun 07:24:17 PM 37.0756 -86.3344 211° Southwest 378 435 19,100 -1,561 Descending Indianapolis Center
Sun 07:25:19 PM 36.9892 -86.3983 211° Southwest 364 419 17,600 -1,379 Descending Indianapolis Center
Sun 07:25:44 PM 36.9631 -86.4183 211° Southwest 357 411 17,100 -1,482 Descending Memphis Center
Sun 07:26:44 PM 36.8817 -86.4794 211° Southwest 351 404 15,500 -1,700 Descending Memphis Center
Sun 07:27:44 PM 36.7981 -86.5431 211° Southwest 345 397 13,700 -1,800 Descending Memphis Center
Sun 07:28:44 PM 36.7011 -86.5733 194° South 345 397 11,900 -1,350 Descending Memphis Center
Sun 07:29:44 PM 36.6139 -86.5800 184° South 331 381 11,000 -1,200 Descending Memphis Center
Sun 07:30:44 PM 36.5347 -86.5839 182° South 303 349 9,500 -1,600 Descending Memphis Center
Sun 07:31:44 PM 36.4556 -86.5850 181° South 293 337 7,800 -1,800 Descending Memphis Center
Sun 07:32:44 PM 36.3786 -86.5886 182° South 288 331 5,900 -1,950 Descending Memphis Center
Sun 07:33:44 PM 36.3014 -86.5922 182° South 288 331 3,900 -1,600 Descending Memphis Center
Sun 07:34:44 PM 36.2439 -86.6128 196° South 265 305 2,700 -1,050 Descending Memphis Center
Sun 07:35:44 PM 36.1986 -86.6328 200° South 206 237 1,800 -750 Descending Memphis Center
Sun 07:36:44 PM 36.1594 -86.6500 200° South 164 189 1,200 -550 Descending Memphis Center
Sun 07:37:44 PM 36.1203 -86.6647 197° South 147 169 700 -500 Descending Memphis Center
Sun 07:43:00 PM 36.1167 -86.6667 141° Southeast  Level FlightAware Approximate
Sun 07:50:00 PM 36.1245 -86.6782 141° Southeast  Level Estimated
Sun 07:51:00 PM 36.1245 -86.6782 141° Southeast  Level Estimated
Sun 07:52:00 PM 36.1245 -86.6782 141° Southeast  Level Estimated
Sun 07:53:00 PM 36.1245 -86.6782 141° Southeast  Level Estimated
Sun 07:54:00 PM 36.1245 -86.6782 141° Southeast  Level Estimated
Sun 07:55:00 PM 36.1245 -86.6782 141° Southeast  Level Estimated
Sun 07:56:00 PM 36.1245 -86.6782 141° Southeast  Level Estimated
Sun 07:57:00 PM 36.1245 -86.6782 141° Southeast  Level Estimated
Sun 07:58:00 PM 36.1245 -86.6782 141° Southeast  Level Estimated

Login

Don't have an account? Register now (free) for customized features, flight alerts, and more!